Time;durP1;ratioP1;P1;durP2;ratioP2;P2;SDS_P1;SDS_P2;PMS_P1;PMS_P2;Temp;Humidity;BMP_temperature;BMP_pressure;BME280_temperature;BME280_humidity;BME280_pressure;Samples;Min_cycle;Max_cycle;Signal;HPM_P1;HPM_P2
2023/05/21 00:01:48;;;;;;;8.90;8.60;;;13.80;99.90;;;;;;5036633;28;20490;-68
2023/05/21 00:04:17;;;;;;;8.73;8.43;;;13.70;99.90;;;;;;5044324;28;20502;-67
2023/05/21 00:06:44;;;;;;;8.97;8.67;;;13.50;99.90;;;;;;5029526;28;20464;-67
2023/05/21 00:09:12;;;;;;;10.50;10.00;;;13.40;99.90;;;;;;5039084;28;20465;-68
2023/05/21 00:11:39;;;;;;;8.90;8.60;;;13.30;99.90;;;;;;5043475;28;20903;-67
2023/05/21 00:14:06;;;;;;;10.00;9.40;;;13.20;99.90;;;;;;5041979;28;20463;-68
2023/05/21 00:16:33;;;;;;;10.33;9.30;;;13.20;99.90;;;;;;5040954;28;20546;-68
2023/05/21 00:19:01;;;;;;;8.13;7.83;;;13.20;99.90;;;;;;5037421;28;20490;-68
2023/05/21 00:21:30;;;;;;;8.03;7.73;;;13.10;99.90;;;;;;5039543;28;20499;-67
2023/05/21 00:23:57;;;;;;;8.03;7.73;;;12.90;99.90;;;;;;5027935;28;20894;-68
2023/05/21 00:26:24;;;;;;;8.70;8.40;;;12.90;99.90;;;;;;5039725;28;20464;-67
2023/05/21 00:28:51;;;;;;;7.03;6.83;;;12.90;99.90;;;;;;5038323;28;20467;-67
2023/05/21 00:31:19;;;;;;;7.00;6.80;;;12.80;99.90;;;;;;5031105;28;20467;-68
2023/05/21 00:33:45;;;;;;;7.33;7.13;;;12.70;99.90;;;;;;5041189;28;20973;-67
2023/05/21 00:36:13;;;;;;;8.00;7.70;;;12.60;99.90;;;;;;5033582;28;20473;-67
2023/05/21 00:38:44;;;;;;;7.57;7.20;;;12.60;99.90;;;;;;5043688;28;20491;-68
2023/05/21 00:41:11;;;;;;;14.27;10.13;;;12.60;99.90;;;;;;5043677;28;20475;-67
2023/05/21 00:43:39;;;;;;;8.63;8.13;;;12.60;99.90;;;;;;5039335;28;20457;-67
2023/05/21 00:46:06;;;;;;;6.37;6.17;;;12.70;99.90;;;;;;5045914;28;20550;-67
2023/05/21 00:48:33;;;;;;;9.10;8.53;;;12.80;99.90;;;;;;5045045;28;20464;-67
2023/05/21 00:51:00;;;;;;;7.53;6.87;;;12.80;99.90;;;;;;5035963;28;20900;-68
2023/05/21 00:53:28;;;;;;;8.17;7.80;;;12.80;99.90;;;;;;5043478;28;20876;-67
2023/05/21 00:55:57;;;;;;;6.40;6.20;;;12.70;99.90;;;;;;5042196;28;20459;-67
2023/05/21 00:58:24;;;;;;;7.03;6.63;;;12.80;99.90;;;;;;5048528;28;20471;-67
2023/05/21 01:00:55;;;;;;;8.37;7.90;;;12.80;99.90;;;;;;5047147;28;20454;-67
2023/05/21 01:03:22;;;;;;;6.77;6.47;;;12.90;99.90;;;;;;5033420;28;20654;-67
2023/05/21 01:05:52;;;;;;;7.47;7.17;;;12.90;99.90;;;;;;5037867;28;20471;-67
2023/05/21 01:08:20;;;;;;;6.37;6.17;;;12.90;99.90;;;;;;5034850;28;20479;-67
2023/05/21 01:10:47;;;;;;;7.60;7.30;;;12.90;99.90;;;;;;5042842;28;20554;-67
2023/05/21 01:13:17;;;;;;;6.13;5.90;;;12.90;99.90;;;;;;5042546;28;20468;-67
2023/05/21 01:15:44;;;;;;;5.90;5.70;;;12.90;99.90;;;;;;5043779;28;20501;-68
2023/05/21 01:18:13;;;;;;;5.57;5.40;;;12.90;99.90;;;;;;5037389;28;20460;-67
2023/05/21 01:20:41;;;;;;;10.83;10.00;;;12.90;99.90;;;;;;5037778;28;20906;-67
2023/05/21 01:23:09;;;;;;;7.53;7.10;;;12.90;99.90;;;;;;5040209;28;20555;-67
2023/05/21 01:25:36;;;;;;;6.23;6.03;;;13.00;99.90;;;;;;5041069;28;20927;-68
2023/05/21 01:28:04;;;;;;;6.20;6.00;;;13.00;99.90;;;;;;5047605;28;20942;-67
2023/05/21 01:30:31;;;;;;;6.10;5.90;;;12.90;99.90;;;;;;5050658;28;20870;-67
2023/05/21 01:33:03;;;;;;;9.27;8.63;;;13.00;99.90;;;;;;5041605;28;20526;-68
2023/05/21 01:35:34;;;;;;;6.93;6.43;;;13.00;99.90;;;;;;5043680;28;21029;-67
2023/05/21 01:38:10;;;;;;;5.40;5.27;;;13.00;99.90;;;;;;5046594;28;20460;-67
2023/05/21 01:40:42;;;;;;;8.40;7.77;;;13.00;99.90;;;;;;5041331;28;20459;-67
2023/05/21 01:43:10;;;;;;;7.67;7.17;;;13.00;99.90;;;;;;5037248;28;20495;-67
2023/05/21 01:45:40;;;;;;;5.97;5.77;;;13.00;99.90;;;;;;5043886;28;20471;-67
2023/05/21 01:48:08;;;;;;;8.90;8.00;;;13.00;99.90;;;;;;5036581;28;20464;-67
2023/05/21 01:50:37;;;;;;;6.03;5.83;;;13.10;99.90;;;;;;5045318;28;20890;-67
2023/05/21 01:53:04;;;;;;;5.90;5.70;;;13.10;99.90;;;;;;5035723;28;20471;-67
2023/05/21 01:55:32;;;;;;;5.70;5.50;;;13.10;99.90;;;;;;5040321;28;20460;-67
2023/05/21 01:58:02;;;;;;;5.20;5.10;;;13.00;99.90;;;;;;5038412;28;20464;-67
2023/05/21 02:00:31;;;;;;;5.33;5.23;;;13.00;99.90;;;;;;5040823;28;20460;-67
2023/05/21 02:02:58;;;;;;;6.77;6.47;;;13.00;99.90;;;;;;5039542;28;20489;-67
2023/05/21 02:05:25;;;;;;;7.07;6.77;;;13.10;99.90;;;;;;5047848;28;20464;-67
2023/05/21 02:07:52;;;;;;;6.00;5.80;;;13.20;99.90;;;;;;5036305;28;20958;-67
2023/05/21 02:10:20;;;;;;;6.83;6.53;;;13.20;99.90;;;;;;5044193;28;20467;-68
2023/05/21 02:12:47;;;;;;;7.13;6.63;;;13.20;99.90;;;;;;5043532;28;20452;-68
2023/05/21 02:15:18;;;;;;;5.53;5.23;;;13.20;99.90;;;;;;5041322;28;20514;-67
2023/05/21 02:17:45;;;;;;;10.17;7.73;;;13.20;99.90;;;;;;5040120;28;20471;-68
2023/05/21 02:20:12;;;;;;;6.70;6.40;;;13.20;99.90;;;;;;5044826;28;20496;-68
2023/05/21 02:22:39;;;;;;;6.03;5.83;;;13.20;99.90;;;;;;5031426;28;20497;-68
2023/05/21 02:25:07;;;;;;;5.77;5.57;;;13.30;99.90;;;;;;5037627;28;20467;-68
2023/05/21 02:27:35;;;;;;;7.33;6.93;;;13.30;99.90;;;;;;5041928;28;20460;-68
2023/05/21 02:30:05;;;;;;;8.57;8.00;;;13.30;99.90;;;;;;5043171;28;20950;-68
2023/05/21 02:32:33;;;;;;;8.57;7.97;;;13.30;99.90;;;;;;5041425;28;20471;-68
2023/05/21 02:35:02;;;;;;;6.20;6.00;;;13.20;99.90;;;;;;5045495;28;20500;-67
2023/05/21 02:37:32;;;;;;;7.40;7.10;;;13.30;99.90;;;;;;5037117;28;20472;-68
2023/05/21 02:40:00;;;;;;;5.87;5.43;;;13.20;99.90;;;;;;5043873;28;20549;-68
2023/05/21 02:42:26;;;;;;;6.30;6.10;;;13.10;99.90;;;;;;5046054;28;20562;-68
2023/05/21 02:44:53;;;;;;;8.37;7.90;;;13.10;99.90;;;;;;5041230;28;20460;-68
2023/05/21 02:47:22;;;;;;;7.73;7.33;;;13.10;99.90;;;;;;5041612;28;20464;-68
2023/05/21 02:49:52;;;;;;;9.30;8.60;;;13.10;99.90;;;;;;5035519;28;20457;-67
2023/05/21 02:52:22;;;;;;;4.83;4.73;;;13.10;99.90;;;;;;5043056;28;20463;-67
2023/05/21 02:54:49;;;;;;;6.23;5.90;;;13.10;99.90;;;;;;5040204;28;20966;-67
2023/05/21 02:57:18;;;;;;;6.20;5.97;;;13.10;99.90;;;;;;5045586;28;20882;-68
2023/05/21 02:59:45;;;;;;;5.37;5.27;;;13.00;99.90;;;;;;5034086;28;20452;-68
2023/05/21 03:02:12;;;;;;;7.10;6.80;;;13.00;99.90;;;;;;5038761;28;20502;-68
2023/05/21 03:04:44;;;;;;;5.67;5.47;;;13.00;99.90;;;;;;5039571;28;21040;-68
2023/05/21 03:07:13;;;;;;;6.87;6.57;;;13.00;99.90;;;;;;5042497;28;20544;-68
2023/05/21 03:09:41;;;;;;;7.43;7.03;;;13.00;99.90;;;;;;5034264;28;20882;-68
2023/05/21 03:12:08;;;;;;;6.93;6.63;;;13.00;99.90;;;;;;5046897;28;20466;-68
2023/05/21 03:14:35;;;;;;;5.77;5.57;;;13.10;99.90;;;;;;5035382;28;20487;-68
2023/05/21 03:17:04;;;;;;;6.43;6.03;;;13.10;99.90;;;;;;5038056;28;20461;-68
2023/05/21 03:19:33;;;;;;;7.03;6.60;;;13.10;99.90;;;;;;5040670;28;20498;-68
2023/05/21 03:22:00;;;;;;;6.30;6.10;;;13.10;99.90;;;;;;5043223;28;20533;-69
2023/05/21 03:24:29;;;;;;;6.00;5.80;;;13.10;99.90;;;;;;5041470;28;20858;-66
2023/05/21 03:26:56;;;;;;;6.13;5.93;;;13.10;99.90;;;;;;5040818;28;20452;-67
2023/05/21 03:29:22;;;;;;;6.07;5.87;;;13.00;99.90;;;;;;5037410;28;20463;-68
2023/05/21 03:31:50;;;;;;;7.00;6.80;;;13.00;99.90;;;;;;5044494;28;20954;-67
2023/05/21 03:34:18;;;;;;;6.10;5.90;;;13.10;99.90;;;;;;5038352;28;20468;-67
2023/05/21 03:36:45;;;;;;;5.77;5.60;;;13.10;99.90;;;;;;5033813;28;20467;-67
2023/05/21 03:39:12;;;;;;;6.33;6.13;;;13.00;99.90;;;;;;5043770;28;20555;-67
2023/05/21 03:41:41;;;;;;;6.23;6.03;;;13.00;99.90;;;;;;5043008;28;20476;-67
2023/05/21 03:44:09;;;;;;;5.70;5.50;;;13.00;99.90;;;;;;5037894;28;20939;-67
2023/05/21 03:46:36;;;;;;;5.77;5.57;;;13.00;99.90;;;;;;5044929;28;20547;-68
2023/05/21 03:49:03;;;;;;;5.63;5.47;;;13.00;99.90;;;;;;5028699;28;20461;-67
2023/05/21 03:51:32;;;;;;;6.53;6.23;;;13.00;99.90;;;;;;5041998;28;20464;-67
2023/05/21 03:54:01;;;;;;;5.93;5.73;;;13.00;99.90;;;;;;5037639;28;20924;-67
2023/05/21 03:56:28;;;;;;;5.90;5.70;;;13.00;99.90;;;;;;5043697;28;20468;-67
2023/05/21 03:58:56;;;;;;;5.53;5.33;;;13.00;99.90;;;;;;5037969;28;20473;-67
2023/05/21 04:01:23;;;;;;;8.20;7.73;;;13.00;99.90;;;;;;5043358;28;20547;-66
2023/05/21 04:03:51;;;;;;;5.40;5.30;;;13.00;99.90;;;;;;5037939;28;20500;-67
2023/05/21 04:06:18;;;;;;;7.93;7.53;;;13.10;99.90;;;;;;5037575;28;20851;-68
2023/05/21 04:08:48;;;;;;;6.03;5.53;;;13.10;99.90;;;;;;5034959;28;20465;-67
2023/05/21 04:11:15;;;;;;;8.17;7.43;;;13.10;99.90;;;;;;5031617;28;20517;-67
2023/05/21 04:13:43;;;;;;;6.97;6.67;;;13.10;99.90;;;;;;5039744;28;20464;-67
2023/05/21 04:16:13;;;;;;;5.33;5.23;;;13.10;99.90;;;;;;5043637;28;20498;-67
2023/05/21 04:18:40;;;;;;;7.13;6.60;;;13.10;99.90;;;;;;5038585;28;20566;-67
2023/05/21 04:21:07;;;;;;;5.57;5.37;;;13.00;99.90;;;;;;5034937;28;20456;-67
2023/05/21 04:23:36;;;;;;;8.40;7.90;;;13.00;99.90;;;;;;5044220;28;20491;-67
2023/05/21 04:26:04;;;;;;;6.00;5.80;;;13.10;99.90;;;;;;5039094;28;20469;-67
2023/05/21 04:28:32;;;;;;;5.37;5.17;;;13.10;99.90;;;;;;5037341;28;21041;-67
2023/05/21 04:30:58;;;;;;;5.70;5.50;;;13.20;99.90;;;;;;5042635;28;20471;-67
2023/05/21 04:33:27;;;;;;;5.70;5.50;;;13.20;99.90;;;;;;5042609;28;20899;-67
2023/05/21 04:35:56;;;;;;;6.60;6.30;;;13.20;99.90;;;;;;5050035;28;20546;-67
2023/05/21 04:38:24;;;;;;;6.00;5.80;;;13.30;99.90;;;;;;5038554;28;20554;-67
2023/05/21 04:40:52;;;;;;;7.50;7.20;;;13.30;99.90;;;;;;5041644;28;20473;-67
2023/05/21 04:43:25;;;;;;;5.83;5.63;;;13.40;99.90;;;;;;5047609;28;20483;-67
2023/05/21 04:45:53;;;;;;;14.47;8.27;;;13.40;99.90;;;;;;5046017;28;20463;-67
2023/05/21 04:48:21;;;;;;;5.90;5.70;;;13.40;99.90;;;;;;5043270;28;20459;-67
2023/05/21 04:50:51;;;;;;;7.60;7.10;;;13.50;99.90;;;;;;5045367;28;21040;-67
2023/05/21 04:53:19;;;;;;;6.63;6.43;;;13.50;99.90;;;;;;5037008;28;20486;-67
2023/05/21 04:55:46;;;;;;;5.77;5.57;;;13.50;99.90;;;;;;5035531;28;20467;-67
2023/05/21 04:58:13;;;;;;;6.27;6.07;;;13.60;99.90;;;;;;5042364;28;20457;-67
2023/05/21 05:00:41;;;;;;;6.00;5.80;;;13.60;99.90;;;;;;5040744;28;20472;-67
2023/05/21 05:03:08;;;;;;;5.90;5.70;;;13.70;99.90;;;;;;5034912;28;20856;-68
2023/05/21 05:05:36;;;;;;;6.90;6.60;;;13.70;99.90;;;;;;5038116;28;20566;-67
2023/05/21 05:08:04;;;;;;;6.23;6.03;;;13.80;99.90;;;;;;5038631;28;20472;-67
2023/05/21 05:10:31;;;;;;;8.10;7.70;;;13.90;99.90;;;;;;5035647;28;20472;-68
2023/05/21 05:12:59;;;;;;;7.77;7.47;;;13.90;99.90;;;;;;5040653;28;20487;-68
2023/05/21 05:15:26;;;;;;;8.00;7.60;;;14.00;99.90;;;;;;5044157;28;20521;-67
2023/05/21 05:17:53;;;;;;;8.60;8.10;;;13.90;99.90;;;;;;5035751;28;21010;-67
2023/05/21 05:20:20;;;;;;;6.80;6.60;;;14.00;99.90;;;;;;5040206;28;20477;-67
2023/05/21 05:22:46;;;;;;;7.73;7.33;;;14.00;99.90;;;;;;5040852;28;20491;-67
2023/05/21 05:25:16;;;;;;;8.93;8.43;;;14.00;99.90;;;;;;5045185;28;20456;-67
2023/05/21 05:27:43;;;;;;;7.67;7.37;;;14.00;99.90;;;;;;5048621;28;20467;-67
2023/05/21 05:30:10;;;;;;;7.30;7.03;;;14.00;99.90;;;;;;5043290;28;20812;-67
2023/05/21 05:32:37;;;;;;;8.87;8.37;;;14.00;99.90;;;;;;5048128;28;20463;-67
2023/05/21 05:35:05;;;;;;;7.27;6.97;;;14.00;99.90;;;;;;5038439;28;20472;-68
2023/05/21 05:37:32;;;;;;;8.10;7.70;;;14.10;99.90;;;;;;5036926;28;20478;-68
2023/05/21 05:39:59;;;;;;;6.80;6.60;;;14.20;99.90;;;;;;5046436;28;20486;-67
2023/05/21 05:42:27;;;;;;;7.37;7.07;;;14.30;99.90;;;;;;5032459;28;20531;-68
2023/05/21 05:44:54;;;;;;;7.43;7.20;;;14.30;99.90;;;;;;5038252;28;20471;-67
2023/05/21 05:47:21;;;;;;;8.37;7.97;;;14.50;99.90;;;;;;5036391;28;20558;-67
2023/05/21 05:49:49;;;;;;;9.30;8.80;;;14.50;99.90;;;;;;5038782;28;20472;-67
2023/05/21 05:52:16;;;;;;;10.20;9.63;;;14.50;99.90;;;;;;5037300;28;20456;-68
2023/05/21 05:54:42;;;;;;;9.50;9.00;;;14.60;99.90;;;;;;5042934;28;20468;-68
2023/05/21 05:57:09;;;;;;;8.63;8.23;;;14.80;99.90;;;;;;5036214;28;20468;-68
2023/05/21 05:59:39;;;;;;;9.30;8.90;;;14.60;99.90;;;;;;5041111;28;20463;-68
2023/05/21 06:02:05;;;;;;;9.30;8.77;;;14.60;99.90;;;;;;5038114;28;20549;-68
2023/05/21 06:04:32;;;;;;;8.00;7.50;;;14.70;99.90;;;;;;5039852;28;20492;-68
2023/05/21 06:06:59;;;;;;;10.50;9.90;;;14.70;99.90;;;;;;5044387;28;20460;-68
2023/05/21 06:09:26;;;;;;;8.10;7.80;;;14.80;99.90;;;;;;5038095;28;20459;-68
2023/05/21 06:11:55;;;;;;;10.53;10.03;;;14.80;99.90;;;;;;5042082;28;20479;-68
2023/05/21 06:14:21;;;;;;;10.27;9.50;;;15.00;99.90;;;;;;5042973;28;20467;-68
2023/05/21 06:16:50;;;;;;;9.57;9.13;;;15.00;99.90;;;;;;5043143;28;20465;-69
2023/05/21 06:19:18;;;;;;;10.87;10.23;;;15.10;99.90;;;;;;5040892;28;20834;-68
2023/05/21 06:21:44;;;;;;;9.40;9.03;;;15.10;99.90;;;;;;5031046;28;20469;-68
2023/05/21 06:24:12;;;;;;;10.57;10.07;;;15.30;99.90;;;;;;5037839;28;20491;-68
2023/05/21 06:26:41;;;;;;;9.30;8.90;;;15.30;99.90;;;;;;5044047;28;20486;-68
2023/05/21 06:29:08;;;;;;;9.23;8.93;;;15.50;99.90;;;;;;5036597;28;20500;-68
2023/05/21 06:31:35;;;;;;;9.93;9.53;;;15.70;99.90;;;;;;5042392;28;20459;-68
2023/05/21 06:34:03;;;;;;;9.33;8.93;;;15.80;99.90;;;;;;5035301;28;20889;-68
2023/05/21 06:36:31;;;;;;;9.20;8.80;;;16.00;99.90;;;;;;5038307;28;20471;-67
2023/05/21 06:38:58;;;;;;;11.97;11.03;;;16.00;99.90;;;;;;5041016;28;20510;-68
2023/05/21 06:41:25;;;;;;;11.33;10.80;;;16.10;99.90;;;;;;5043161;28;20456;-69
2023/05/21 06:43:52;;;;;;;10.10;9.50;;;16.20;99.90;;;;;;5039192;28;20495;-68
2023/05/21 06:46:18;;;;;;;10.00;9.50;;;16.30;99.90;;;;;;5045704;28;20517;-68
2023/05/21 06:48:46;;;;;;;10.77;10.20;;;16.50;99.90;;;;;;5043028;28;20452;-68
2023/05/21 06:51:15;;;;;;;11.40;10.90;;;16.60;99.90;;;;;;5046097;28;21014;-68
2023/05/21 06:53:41;;;;;;;10.27;9.77;;;16.70;99.90;;;;;;5047029;28;20472;-68
2023/05/21 06:56:08;;;;;;;9.83;9.30;;;16.90;99.90;;;;;;5040824;28;20535;-68
2023/05/21 06:58:35;;;;;;;11.40;10.80;;;17.10;99.90;;;;;;5038562;28;20518;-68
2023/05/21 07:01:02;;;;;;;10.70;10.30;;;17.20;99.90;;;;;;5035125;28;20564;-68
2023/05/21 07:03:29;;;;;;;12.20;11.27;;;17.40;99.90;;;;;;5043981;28;20481;-68
2023/05/21 07:05:56;;;;;;;11.17;10.70;;;17.50;99.90;;;;;;5033372;28;20461;-68
2023/05/21 07:08:26;;;;;;;11.00;10.50;;;17.40;99.90;;;;;;5042800;28;20954;-69
2023/05/21 07:10:53;;;;;;;13.10;12.10;;;17.50;99.90;;;;;;5039336;28;20468;-68
2023/05/21 07:13:20;;;;;;;10.27;9.83;;;17.50;99.90;;;;;;5042441;28;20547;-68
2023/05/21 07:15:47;;;;;;;10.73;10.13;;;17.50;99.90;;;;;;5043324;28;20472;-67
2023/05/21 07:18:15;;;;;;;11.30;10.70;;;17.70;99.90;;;;;;5041495;28;20460;-68
2023/05/21 07:20:42;;;;;;;10.80;10.10;;;17.60;99.90;;;;;;5037786;28;20457;-67
2023/05/21 07:23:10;;;;;;;10.13;9.60;;;17.70;99.90;;;;;;5039134;28;20879;-67
2023/05/21 07:25:38;;;;;;;11.17;10.50;;;17.80;99.90;;;;;;5043004;28;20471;-67
2023/05/21 07:28:05;;;;;;;9.00;8.70;;;18.10;99.90;;;;;;5040161;28;20461;-67
2023/05/21 07:30:32;;;;;;;10.40;9.97;;;18.10;99.90;;;;;;5031096;28;20875;-67
2023/05/21 07:33:00;;;;;;;10.30;9.70;;;18.30;99.90;;;;;;5041510;28;20456;-67
2023/05/21 07:35:27;;;;;;;11.40;10.70;;;18.50;99.90;;;;;;5036864;28;20978;-67
2023/05/21 07:37:54;;;;;;;9.20;8.90;;;18.70;99.90;;;;;;5030388;28;20951;-67
2023/05/21 07:40:21;;;;;;;10.40;10.00;;;18.90;99.90;;;;;;5039136;28;20471;-67
2023/05/21 07:42:50;;;;;;;11.30;10.80;;;19.20;99.90;;;;;;5042641;28;20958;-67
2023/05/21 07:45:16;;;;;;;9.90;9.60;;;19.50;99.90;;;;;;5033436;28;20978;-67
2023/05/21 07:47:46;;;;;;;9.77;9.47;;;19.40;99.90;;;;;;5039148;28;20488;-67
2023/05/21 07:50:13;;;;;;;11.13;10.20;;;19.40;99.90;;;;;;5033634;28;20461;-67
2023/05/21 07:52:41;;;;;;;9.93;9.63;;;19.60;99.90;;;;;;5035077;28;20556;-67
2023/05/21 07:55:09;;;;;;;9.90;9.60;;;19.50;99.90;;;;;;5040736;28;20524;-67
2023/05/21 07:57:36;;;;;;;11.07;10.57;;;19.80;99.90;;;;;;5035279;28;20887;-68
2023/05/21 08:00:05;;;;;;;12.23;11.63;;;19.90;99.90;;;;;;5042674;28;20476;-68
2023/05/21 08:02:34;;;;;;;10.57;10.17;;;20.20;99.90;;;;;;5041236;28;20468;-67
2023/05/21 08:05:01;;;;;;;13.53;12.83;;;20.00;99.90;;;;;;5042877;28;20495;-68
2023/05/21 08:07:27;;;;;;;10.00;9.70;;;20.00;99.90;;;;;;5045468;28;21026;-67
2023/05/21 08:09:54;;;;;;;11.97;11.37;;;20.00;99.90;;;;;;5042941;28;20514;-67
2023/05/21 08:12:21;;;;;;;11.90;11.40;;;20.20;99.90;;;;;;5039346;28;20504;-67
2023/05/21 08:14:48;;;;;;;10.87;10.47;;;20.40;99.90;;;;;;5043772;28;20534;-68
2023/05/21 08:17:17;;;;;;;10.53;10.13;;;20.70;99.90;;;;;;5041385;28;20460;-68
2023/05/21 08:19:44;;;;;;;12.67;11.97;;;20.90;99.90;;;;;;5035649;28;20495;-68
2023/05/21 08:22:11;;;;;;;10.87;10.47;;;20.80;99.90;;;;;;5037419;28;20537;-67
2023/05/21 08:24:37;;;;;;;10.93;10.53;;;20.70;99.90;;;;;;5037201;28;20493;-67
2023/05/21 08:27:06;;;;;;;12.80;12.00;;;20.70;99.90;;;;;;5034403;28;20460;-68
2023/05/21 08:29:33;;;;;;;10.50;10.10;;;20.50;99.90;;;;;;5037337;28;20459;-68
2023/05/21 08:32:01;;;;;;;13.13;12.33;;;20.60;99.90;;;;;;5041819;28;20463;-68
2023/05/21 08:34:30;;;;;;;12.87;11.93;;;21.30;99.90;;;;;;5036229;28;20469;-68
2023/05/21 08:36:57;;;;;;;14.50;13.57;;;21.50;99.90;;;;;;5037158;28;20474;-67
2023/05/21 08:39:24;;;;;;;12.30;11.60;;;21.10;99.90;;;;;;5038287;28;20534;-68
2023/05/21 08:42:04;;;;;;;12.93;12.10;;;21.30;99.90;;;;;;5032915;28;20985;-68
2023/05/21 08:44:34;;;;;;;14.10;13.40;;;21.40;99.90;;;;;;5036256;28;20487;-68
2023/05/21 08:47:05;;;;;;;12.90;11.90;;;21.80;99.90;;;;;;5035768;28;21028;-67
2023/05/21 08:49:35;;;;;;;14.53;13.60;;;21.50;99.90;;;;;;5042784;28;20521;-68
2023/05/21 08:52:02;;;;;;;12.87;11.90;;;21.50;99.90;;;;;;5045493;28;20472;-67
2023/05/21 08:54:31;;;;;;;13.60;12.83;;;21.40;99.90;;;;;;5034756;28;20456;-67
2023/05/21 08:56:59;;;;;;;11.80;10.87;;;21.10;99.90;;;;;;5035251;28;20475;-68
2023/05/21 08:59:27;;;;;;;11.17;10.67;;;21.20;99.90;;;;;;5044110;28;20452;-67
2023/05/21 09:01:56;;;;;;;11.13;10.70;;;21.30;99.90;;;;;;5037646;28;20464;-68
2023/05/21 09:04:24;;;;;;;13.60;12.80;;;21.50;99.90;;;;;;5041293;28;20476;-68
2023/05/21 09:06:56;;;;;;;13.27;12.67;;;21.50;99.90;;;;;;5043152;28;20457;-68
2023/05/21 09:09:28;;;;;;;11.40;11.00;;;21.60;99.90;;;;;;5036437;28;20980;-68
2023/05/21 09:11:55;;;;;;;11.47;10.97;;;21.90;99.90;;;;;;5043253;28;20513;-68
2023/05/21 09:14:24;;;;;;;12.10;11.60;;;22.20;99.90;;;;;;5043310;28;20464;-67
2023/05/21 09:16:51;;;;;;;14.23;13.33;;;22.70;99.90;;;;;;5043501;28;20506;-68
2023/05/21 09:19:20;;;;;;;11.80;11.30;;;23.20;99.90;;;;;;5041875;28;20889;-68
2023/05/21 09:21:47;;;;;;;18.23;16.60;;;23.00;99.90;;;;;;5039299;28;20556;-68
2023/05/21 09:24:16;;;;;;;13.43;12.80;;;22.70;99.90;;;;;;5048143;28;20502;-68
2023/05/21 09:26:44;;;;;;;13.07;12.50;;;22.80;99.90;;;;;;5037519;28;21100;-68
2023/05/21 09:29:13;;;;;;;14.03;13.33;;;22.60;99.90;;;;;;5041125;28;20829;-68
2023/05/21 09:31:43;;;;;;;14.50;13.13;;;22.80;99.90;;;;;;5036637;28;20453;-68
2023/05/21 09:34:12;;;;;;;12.70;12.07;;;24.00;99.90;;;;;;5044441;28;20654;-68
2023/05/21 09:36:40;;;;;;;14.10;13.50;;;25.00;99.90;;;;;;5046879;28;20474;-68
2023/05/21 09:39:07;;;;;;;12.80;12.30;;;25.90;99.90;;;;;;5041245;28;20457;-68
2023/05/21 09:41:36;;;;;;;15.17;14.50;;;26.50;99.90;;;;;;5041221;28;20696;-68
2023/05/21 09:44:03;;;;;;;13.47;12.97;;;27.10;99.90;;;;;;5032875;28;20500;-68
2023/05/21 09:46:40;;;;;;;13.40;12.90;;;27.70;99.90;;;;;;5041112;28;20896;-68
2023/05/21 09:49:07;;;;;;;15.80;15.00;;;27.80;99.90;;;;;;5045573;28;20494;-68
2023/05/21 09:51:38;;;;;;;16.87;15.70;;;27.30;99.90;;;;;;5048433;28;20482;-68
2023/05/21 09:54:04;;;;;;;17.90;13.00;;;26.10;99.90;;;;;;5042711;28;20460;-68
2023/05/21 09:56:31;;;;;;;16.30;15.40;;;25.50;99.90;;;;;;5042817;28;20473;-68
2023/05/21 09:59:03;;;;;;;16.70;15.70;;;24.80;99.90;;;;;;5047439;28;20463;-68
2023/05/21 10:01:32;;;;;;;17.63;16.50;;;24.10;99.90;;;;;;5040715;28;20472;-68
2023/05/21 10:04:00;;;;;;;14.77;13.97;;;23.80;99.90;;;;;;5035842;28;20606;-68
2023/05/21 10:06:29;;;;;;;14.73;13.77;;;23.60;99.90;;;;;;5047238;28;20460;-68
2023/05/21 10:08:57;;;;;;;15.70;14.60;;;24.30;99.90;;;;;;5043755;28;20546;-67
2023/05/21 10:11:26;;;;;;;14.13;13.47;;;24.00;99.90;;;;;;5042561;28;20463;-68
2023/05/21 10:14:01;;;;;;;13.03;12.23;;;23.30;99.90;;;;;;5044099;28;20465;-68
2023/05/21 10:16:29;;;;;;;16.97;15.77;;;23.50;99.90;;;;;;5041312;28;21065;-68
2023/05/21 10:18:58;;;;;;;16.00;14.77;;;23.00;99.90;;;;;;5037319;28;20480;-68
2023/05/21 10:21:27;;;;;;;17.33;13.30;;;22.90;99.90;;;;;;5043294;28;20467;-68
2023/05/21 10:23:56;;;;;;;13.60;12.80;;;22.20;99.90;;;;;;5037427;28;20578;-68
2023/05/21 10:26:23;;;;;;;12.03;11.53;;;22.20;99.90;;;;;;5034149;28;20465;-68
2023/05/21 10:28:52;;;;;;;16.10;15.07;;;22.40;99.90;;;;;;5044137;28;20463;-68
2023/05/21 10:31:22;;;;;;;15.33;14.33;;;22.60;99.90;;;;;;5047442;28;20947;-68
2023/05/21 10:33:50;;;;;;;10.47;10.07;;;22.10;99.90;;;;;;5042916;28;20583;-68
2023/05/21 10:36:19;;;;;;;15.33;14.13;;;22.10;99.90;;;;;;5038185;28;20467;-68
2023/05/21 10:38:47;;;;;;;14.27;13.53;;;22.20;99.90;;;;;;5046539;28;20467;-68
2023/05/21 10:41:16;;;;;;;13.33;12.70;;;22.40;99.90;;;;;;5043623;28;20522;-67
2023/05/21 10:44:02;;;;;;;20.13;18.47;;;22.80;99.90;;;;;;5039326;28;20511;-68
2023/05/21 10:47:04;;;;;;;16.27;14.87;;;23.00;99.90;;;;;;5041994;28;20483;-67
2023/05/21 10:49:45;;;;;;;11.77;11.30;;;22.60;99.90;;;;;;5035882;28;20463;-67
2023/05/21 10:52:24;;;;;;;12.30;11.80;;;22.80;99.90;;;;;;5038206;28;20460;-68
2023/05/21 10:55:02;;;;;;;15.30;14.03;;;23.30;99.90;;;;;;5048331;28;20520;-68
2023/05/21 10:58:01;;;;;;;12.17;11.67;;;23.70;99.90;;;;;;5033256;28;20457;-68
2023/05/21 11:00:30;;;;;;;15.17;14.27;;;23.80;99.90;;;;;;5040113;28;20517;-68
2023/05/21 11:03:00;;;;;;;14.17;13.47;;;24.10;99.90;;;;;;5047241;28;20497;-68
2023/05/21 11:05:41;;;;;;;17.70;16.40;;;24.30;99.90;;;;;;5048070;28;20502;-68
2023/05/21 11:08:21;;;;;;;13.60;12.80;;;24.20;99.90;;;;;;5030667;28;20867;-67
2023/05/21 11:10:52;;;;;;;13.90;13.20;;;24.20;99.90;;;;;;5034323;28;20958;-68
2023/05/21 11:13:20;;;;;;;14.40;13.60;;;24.90;99.90;;;;;;5044540;28;20845;-68
2023/05/21 11:16:07;;;;;;;12.40;11.90;;;25.40;99.90;;;;;;5035692;28;20492;-68
2023/05/21 11:19:01;;;;;;;16.30;15.13;;;26.50;99.90;;;;;;5043178;28;20449;-68
2023/05/21 11:21:33;;;;;;;12.80;12.30;;;26.60;99.90;;;;;;5041022;28;20551;-68
2023/05/21 11:24:03;;;;;;;18.63;17.43;;;26.80;99.90;;;;;;5038778;28;20554;-68
2023/05/21 11:26:54;;;;;;;14.33;13.63;;;27.00;99.90;;;;;;5038476;28;20476;-68
2023/05/21 11:29:32;;;;;;;14.20;13.50;;;27.40;99.90;;;;;;5030047;28;20468;-68
2023/05/21 11:32:01;;;;;;;16.43;15.50;;;27.20;99.90;;;;;;5041257;28;20513;-68
2023/05/21 11:34:38;;;;;;;17.30;16.20;;;27.10;99.90;;;;;;5029580;28;20655;-68
2023/05/21 11:37:27;;;;;;;15.73;14.83;;;26.70;99.90;;;;;;5034911;28;20460;-68
2023/05/21 11:39:55;;;;;;;13.00;12.50;;;26.50;99.90;;;;;;5040826;28;20468;-68
2023/05/21 11:42:29;;;;;;;15.90;15.00;;;26.40;99.90;;;;;;5040822;28;21006;-68
2023/05/21 11:44:58;;;;;;;16.30;15.23;;;27.40;99.90;;;;;;5037127;28;20566;-68
2023/05/21 11:47:27;;;;;;;15.93;15.00;;;28.00;99.90;;;;;;5045236;28;20574;-68
2023/05/21 11:49:56;;;;;;;17.03;16.13;;;28.30;99.90;;;;;;5037409;28;20468;-68
2023/05/21 11:52:25;;;;;;;17.17;16.17;;;28.50;99.90;;;;;;5042123;28;20694;-68
2023/05/21 11:54:55;;;;;;;15.87;14.83;;;28.50;99.90;;;;;;5038692;28;20504;-68
2023/05/21 11:57:25;;;;;;;20.63;19.00;;;28.50;99.90;;;;;;5040740;28;20461;-69
2023/05/21 11:59:53;;;;;;;18.23;16.87;;;28.00;99.90;;;;;;5030268;28;20456;-69
2023/05/21 12:02:21;;;;;;;18.57;17.37;;;27.30;99.90;;;;;;5037914;28;20468;-69
2023/05/21 12:04:50;;;;;;;16.33;15.37;;;27.60;99.90;;;;;;5033039;28;20492;-69
2023/05/21 12:07:20;;;;;;;19.33;18.03;;;28.10;99.90;;;;;;5040804;28;20467;-69
2023/05/21 12:09:49;;;;;;;14.60;14.00;;;28.50;99.90;;;;;;5040770;28;20468;-69
2023/05/21 12:12:17;;;;;;;15.23;14.53;;;29.20;99.90;;;;;;5034965;28;20472;-67
2023/05/21 12:14:46;;;;;;;14.70;14.10;;;29.70;99.90;;;;;;5043362;28;20461;-67
2023/05/21 12:17:15;;;;;;;16.20;15.30;;;30.60;99.90;;;;;;5044767;28;20463;-69
2023/05/21 12:19:42;;;;;;;19.60;18.33;;;30.90;99.90;;;;;;5039936;28;20487;-69
2023/05/21 12:22:09;;;;;;;17.40;16.40;;;29.80;99.90;;;;;;5038602;28;20526;-69
2023/05/21 12:24:38;;;;;;;15.60;14.70;;;29.00;99.90;;;;;;5036708;28;20479;-69
2023/05/21 12:27:08;;;;;;;15.63;14.80;;;28.50;99.90;;;;;;5038072;28;20519;-69
2023/05/21 12:29:37;;;;;;;17.33;16.30;;;28.70;99.90;;;;;;5032469;28;20502;-69
2023/05/21 12:32:07;;;;;;;19.83;18.23;;;29.90;99.90;;;;;;5037974;28;20474;-69
2023/05/21 12:34:38;;;;;;;15.47;14.67;;;29.60;99.90;;;;;;5041335;28;20456;-68
2023/05/21 12:37:06;;;;;;;15.17;14.47;;;29.30;99.90;;;;;;5035863;28;20463;-68
2023/05/21 12:39:33;;;;;;;14.10;13.50;;;29.90;99.90;;;;;;5033817;28;21065;-69
2023/05/21 12:42:03;;;;;;;20.50;18.83;;;29.70;99.90;;;;;;5037930;28;20497;-67
2023/05/21 12:44:31;;;;;;;17.10;16.23;;;30.40;99.90;;;;;;5042209;28;20507;-67
2023/05/21 12:46:58;;;;;;;16.87;15.90;;;30.20;99.90;;;;;;5035432;28;20510;-68